createdAt,value
2023-05-03T00:00:41.817Z,95936.28
2023-05-03T00:03:08.389Z,95933.13
2023-05-03T00:05:35.053Z,95929.84
2023-05-03T00:08:02.238Z,95935.28
2023-05-03T00:10:29.356Z,95933.47
2023-05-03T00:12:56.803Z,95939.03
2023-05-03T00:15:23.429Z,95926.75
2023-05-03T00:17:50.235Z,95932.50
2023-05-03T00:20:17.579Z,95929.81
2023-05-03T00:22:44.173Z,95927.19
2023-05-03T00:25:10.761Z,95929.00
2023-05-03T00:27:37.462Z,95929.34
2023-05-03T00:30:05.079Z,95927.34
2023-05-03T00:32:31.968Z,95932.41
2023-05-03T00:34:58.884Z,95929.78
2023-05-03T00:37:25.515Z,95932.28
2023-05-03T00:39:52.455Z,95924.84
2023-05-03T00:42:19.364Z,95932.28
2023-05-03T00:44:45.899Z,95926.47
2023-05-03T00:47:12.797Z,95922.00
2023-05-03T00:49:39.710Z,95916.91
2023-05-03T00:52:06.612Z,95912.94
2023-05-03T00:54:35.063Z,95919.19
2023-05-03T00:57:02.237Z,95913.28
2023-05-03T00:59:29.099Z,95921.34
2023-05-03T01:01:55.746Z,95916.56
2023-05-03T01:04:23.649Z,95916.44
2023-05-03T01:07:16.987Z,95914.81
2023-05-03T01:09:53.570Z,95905.75
2023-05-03T01:12:33.435Z,95904.56
2023-05-03T01:15:21.206Z,95906.91
2023-05-03T01:18:04.276Z,95908.88
2023-05-03T01:20:35.194Z,95902.13
2023-05-03T01:23:10.700Z,95908.16
2023-05-03T01:25:37.305Z,95905.22
2023-05-03T01:28:03.923Z,95901.59
2023-05-03T01:30:32.850Z,95904.41
2023-05-03T01:33:03.524Z,95909.97
2023-05-03T01:35:37.309Z,95911.78
2023-05-03T01:38:05.027Z,95912.28
2023-05-03T01:40:55.818Z,95912.41
2023-05-03T01:43:23.360Z,95911.59
2023-05-03T01:45:50.378Z,95910.13
2023-05-03T01:48:18.792Z,95910.47
2023-05-03T01:50:45.881Z,95906.66
2023-05-03T01:53:12.654Z,95912.03
2023-05-03T01:55:39.183Z,95905.75
2023-05-03T01:58:06.158Z,95910.53
2023-05-03T02:00:33.002Z,95915.66
2023-05-03T02:02:59.641Z,95916.66
2023-05-03T02:05:26.187Z,95927.56
2023-05-03T02:07:53.956Z,95920.78
2023-05-03T02:10:20.999Z,95922.94
2023-05-03T02:12:47.557Z,95924.22
2023-05-03T02:15:14.406Z,95922.25
2023-05-03T02:17:42.932Z,95917.66
2023-05-03T02:20:12.588Z,95917.50
2023-05-03T02:22:39.239Z,95917.78
2023-05-03T02:25:06.735Z,95905.09
2023-05-03T02:27:33.367Z,95906.41
2023-05-03T02:30:01.088Z,95908.34
2023-05-03T02:32:28.160Z,95904.25
2023-05-03T02:34:54.922Z,95917.63
2023-05-03T02:37:23.505Z,95915.03
2023-05-03T02:39:50.136Z,95919.63
2023-05-03T02:42:17.176Z,95914.41
2023-05-03T02:44:46.399Z,95909.25
2023-05-03T02:47:13.048Z,95918.94
2023-05-03T02:49:41.808Z,95917.16
2023-05-03T02:52:08.405Z,95914.00
2023-05-03T02:54:34.936Z,95916.78
2023-05-03T02:57:07.414Z,95918.13
2023-05-03T02:59:34.062Z,95912.41
2023-05-03T03:02:01.534Z,95920.78
2023-05-03T03:04:28.959Z,95914.03
2023-05-03T03:06:56.732Z,95916.63
2023-05-03T03:09:23.404Z,95918.13
2023-05-03T03:11:53.175Z,95921.91
2023-05-03T03:14:20.206Z,95922.78
2023-05-03T03:16:46.827Z,95922.31
2023-05-03T03:19:13.757Z,95916.19
2023-05-03T03:21:41.628Z,95918.16
2023-05-03T03:24:08.905Z,95912.41
2023-05-03T03:26:35.446Z,95911.94
2023-05-03T03:29:02.171Z,95909.97
2023-05-03T03:31:28.830Z,95907.94
2023-05-03T03:33:56.179Z,95917.31
2023-05-03T03:36:26.291Z,95917.22
2023-05-03T03:38:52.912Z,95915.47
2023-05-03T03:41:19.807Z,95917.03
2023-05-03T03:43:46.670Z,95909.94
2023-05-03T03:46:17.520Z,95916.59
2023-05-03T03:48:44.830Z,95917.75
2023-05-03T03:51:11.428Z,95920.34
2023-05-03T03:53:44.091Z,95911.28
2023-05-03T03:56:10.833Z,95920.38
2023-05-03T03:58:37.546Z,95924.44
2023-05-03T04:01:06.839Z,95915.53
2023-05-03T04:03:33.489Z,95922.16
2023-05-03T04:06:00.058Z,95924.44
2023-05-03T04:08:27.955Z,95924.75
2023-05-03T04:10:54.497Z,95926.19
2023-05-03T04:13:21.280Z,95924.72
2023-05-03T04:15:54.679Z,95929.16
2023-05-03T04:18:22.136Z,95923.72
2023-05-03T04:20:49.291Z,95928.84
2023-05-03T04:23:16.787Z,95927.97
2023-05-03T04:25:46.915Z,95935.75
2023-05-03T04:28:15.275Z,95936.03
2023-05-03T04:30:47.202Z,95940.53
2023-05-03T04:33:16.936Z,95934.63
2023-05-03T04:35:43.766Z,95932.97
2023-05-03T04:38:13.857Z,95941.16
2023-05-03T04:40:41.209Z,95943.16
2023-05-03T04:43:09.597Z,95937.41
2023-05-03T04:45:39.683Z,95945.56
2023-05-03T04:48:09.226Z,95950.97
2023-05-03T04:50:36.317Z,95943.28
2023-05-03T04:53:04.413Z,95946.38
2023-05-03T04:55:33.996Z,95945.84
2023-05-03T04:58:01.968Z,95943.66
2023-05-03T05:00:28.884Z,95947.50
2023-05-03T05:03:01.254Z,95960.06
2023-05-03T05:05:30.378Z,95959.41
2023-05-03T05:07:59.311Z,95964.03
2023-05-03T05:10:29.983Z,95961.75
2023-05-03T05:12:58.175Z,95967.84
2023-05-03T05:15:25.140Z,95977.31
2023-05-03T05:17:51.986Z,95969.63
2023-05-03T05:20:19.860Z,95972.84
2023-05-03T05:22:49.380Z,95971.91
2023-05-03T05:25:15.971Z,95983.75
2023-05-03T05:27:42.570Z,95976.84
2023-05-03T05:30:09.574Z,95975.53
2023-05-03T05:32:38.621Z,95981.31
2023-05-03T05:35:08.699Z,95980.03
2023-05-03T05:37:36.117Z,95981.25
2023-05-03T05:40:05.108Z,95983.44
2023-05-03T05:42:37.479Z,95984.28
2023-05-03T05:45:04.731Z,95982.53
2023-05-03T05:47:31.417Z,95986.22
2023-05-03T05:49:59.105Z,95984.03
2023-05-03T05:52:25.682Z,95984.06
2023-05-03T05:54:52.273Z,95984.75
2023-05-03T05:57:19.194Z,95983.28
2023-05-03T05:59:46.113Z,95983.78
2023-05-03T06:02:17.041Z,95987.59
2023-05-03T06:04:46.769Z,95984.97
2023-05-03T06:07:14.515Z,95983.94
2023-05-03T06:09:41.413Z,95991.72
2023-05-03T06:12:08.417Z,95989.91
2023-05-03T06:14:37.459Z,95997.19
2023-05-03T06:17:04.822Z,95991.88
2023-05-03T06:19:31.687Z,95996.97
2023-05-03T06:21:58.471Z,95989.22
2023-05-03T06:24:30.987Z,95995.69
2023-05-03T06:26:58.651Z,96001.59
2023-05-03T06:29:25.439Z,95994.81
2023-05-03T06:31:52.250Z,96002.78
2023-05-03T06:34:21.584Z,96004.59
2023-05-03T06:36:50.211Z,96007.91
2023-05-03T06:39:18.274Z,96005.69
2023-05-03T06:41:45.562Z,96004.00
2023-05-03T06:44:12.765Z,96008.91
2023-05-03T06:46:39.451Z,96005.41
2023-05-03T06:49:06.153Z,96013.53
2023-05-03T06:51:33.411Z,96012.03
2023-05-03T06:54:06.502Z,96015.16
2023-05-03T06:56:33.879Z,96011.56
2023-05-03T06:59:01.177Z,96015.03
2023-05-03T07:01:28.194Z,96013.00
2023-05-03T07:03:54.879Z,96005.06
2023-05-03T07:06:23.467Z,96011.72
2023-05-03T07:08:51.865Z,96006.47
2023-05-03T07:11:19.399Z,96011.81
2023-05-03T07:13:46.384Z,96017.78
2023-05-03T07:16:12.992Z,96009.63
2023-05-03T07:18:40.094Z,96012.63
2023-05-03T07:21:08.667Z,96008.56
2023-05-03T07:23:36.177Z,96002.97
2023-05-03T07:26:02.734Z,96008.75
2023-05-03T07:28:29.331Z,96008.69
2023-05-03T07:30:55.891Z,96000.22
2023-05-03T07:33:22.700Z,95993.50
2023-05-03T07:35:50.607Z,96001.34
2023-05-03T07:38:17.611Z,96001.03
2023-05-03T07:40:44.505Z,95997.50
2023-05-03T07:43:11.140Z,95999.91
2023-05-03T07:45:38.308Z,96003.63
2023-05-03T07:48:06.268Z,96001.06
2023-05-03T07:50:32.864Z,96008.59
2023-05-03T07:52:59.436Z,96002.28
2023-05-03T07:55:26.618Z,96002.13
2023-05-03T07:57:58.319Z,95996.41
2023-05-03T08:00:26.194Z,96003.41
2023-05-03T08:02:52.938Z,96005.84
2023-05-03T08:05:19.832Z,96000.69
2023-05-03T08:07:46.825Z,95998.03
2023-05-03T08:10:13.445Z,95996.03
2023-05-03T08:12:40.042Z,95995.66
2023-05-03T08:15:07.344Z,95995.84
2023-05-03T08:17:44.039Z,95989.06
2023-05-03T08:20:11.468Z,95989.56
2023-05-03T08:22:38.666Z,95994.41
2023-05-03T08:25:05.985Z,95996.88
2023-05-03T08:27:32.899Z,95991.38
2023-05-03T08:30:01.510Z,95999.88
2023-05-03T08:32:28.383Z,95992.06
2023-05-03T08:34:56.017Z,95991.56
2023-05-03T08:37:23.175Z,95986.81
2023-05-03T08:39:49.759Z,95983.13
2023-05-03T08:42:16.301Z,95977.09
2023-05-03T08:44:48.550Z,95980.88
2023-05-03T08:47:16.972Z,95978.44
2023-05-03T08:49:44.392Z,95983.47
2023-05-03T08:52:12.264Z,95979.97
2023-05-03T08:54:38.948Z,95978.69
2023-05-03T08:57:11.290Z,95978.75
2023-05-03T08:59:48.411Z,95975.25
2023-05-03T09:02:16.402Z,95971.97
2023-05-03T09:04:43.352Z,95985.53
2023-05-03T09:07:13.423Z,95988.66
2023-05-03T09:09:40.031Z,95988.72
2023-05-03T09:12:06.672Z,95992.75
2023-05-03T09:14:45.441Z,95986.19
2023-05-03T09:17:22.233Z,95995.47
2023-05-03T09:19:54.079Z,95994.63
2023-05-03T09:22:22.385Z,95994.81
2023-05-03T09:24:56.925Z,95980.25
2023-05-03T09:27:24.823Z,95989.31
2023-05-03T09:29:52.190Z,95990.19
2023-05-03T09:32:19.688Z,95992.66
2023-05-03T09:34:46.285Z,95985.03
2023-05-03T09:37:16.505Z,95983.31
2023-05-03T09:39:45.670Z,95975.69
2023-05-03T09:42:16.850Z,95983.31
2023-05-03T09:44:48.887Z,95974.44
2023-05-03T09:47:15.905Z,95973.88
2023-05-03T09:49:43.666Z,95974.06
2023-05-03T09:52:11.084Z,95974.06
2023-05-03T09:54:38.267Z,95961.16
2023-05-03T09:57:07.426Z,95965.53
2023-05-03T09:59:35.375Z,95964.44
2023-05-03T10:02:07.425Z,95962.47
2023-05-03T10:04:47.621Z,95963.22
2023-05-03T10:07:17.956Z,95970.34
2023-05-03T10:09:46.732Z,95960.91
2023-05-03T10:12:17.004Z,95955.56
2023-05-03T10:14:46.501Z,95955.00
2023-05-03T10:17:39.299Z,95957.44
2023-05-03T10:20:46.029Z,95951.03
2023-05-03T10:23:13.756Z,95956.63
2023-05-03T10:26:07.015Z,95958.81
2023-05-03T10:28:34.149Z,95949.28
2023-05-03T10:31:00.760Z,95948.22
2023-05-03T10:33:37.352Z,95946.66
2023-05-03T10:36:10.379Z,95939.81
2023-05-03T10:38:37.923Z,95940.41
2023-05-03T10:41:06.733Z,95944.25
2023-05-03T10:43:36.276Z,95932.78
2023-05-03T10:46:08.706Z,95944.41
2023-05-03T10:48:35.738Z,95938.63
2023-05-03T10:51:33.079Z,95940.63
2023-05-03T10:53:59.753Z,95940.00
2023-05-03T10:56:26.385Z,95933.88
2023-05-03T10:58:56.852Z,95934.72
2023-05-03T11:01:24.398Z,95939.91
2023-05-03T11:04:20.631Z,95936.91
2023-05-03T11:06:49.676Z,95946.75
2023-05-03T11:09:16.548Z,95933.19
2023-05-03T11:11:43.506Z,95938.88
2023-05-03T11:14:10.640Z,95930.03
2023-05-03T11:16:40.575Z,95925.84
2023-05-03T11:19:07.237Z,95931.59
2023-05-03T11:21:33.860Z,95929.91
2023-05-03T11:24:01.832Z,95933.63
2023-05-03T11:26:28.396Z,95932.41
2023-05-03T11:28:55.016Z,95926.31
2023-05-03T11:31:22.531Z,95942.63
2023-05-03T11:33:50.299Z,95933.88
2023-05-03T11:36:16.929Z,95921.31
2023-05-03T11:38:43.531Z,95917.66
2023-05-03T11:41:16.149Z,95921.94
2023-05-03T11:43:47.693Z,95914.75
2023-05-03T11:46:21.527Z,95914.13
2023-05-03T11:48:48.142Z,95916.56
2023-05-03T11:51:15.135Z,95920.50
2023-05-03T11:53:43.883Z,95914.56
2023-05-03T11:56:15.199Z,95917.44
2023-05-03T11:58:57.386Z,95903.84
2023-05-03T12:01:26.337Z,95891.22
2023-05-03T12:03:54.543Z,95898.47
2023-05-03T12:06:22.395Z,95894.34
2023-05-03T12:08:50.090Z,95901.06
2023-05-03T12:11:17.980Z,95889.94
2023-05-03T12:13:45.452Z,95900.69
2023-05-03T12:16:15.605Z,95902.09
2023-05-03T12:19:03.101Z,95899.44
2023-05-03T12:22:00.895Z,95892.31
2023-05-03T12:24:34.755Z,95899.28
2023-05-03T12:27:03.196Z,95892.94
2023-05-03T12:29:34.154Z,95888.69
2023-05-03T12:32:03.247Z,95890.50
2023-05-03T12:34:34.697Z,95890.78
2023-05-03T12:37:04.665Z,95884.56
2023-05-03T12:39:39.300Z,95884.75
2023-05-03T12:42:08.896Z,95881.63
2023-05-03T12:44:41.354Z,95877.22
2023-05-03T12:47:10.017Z,95873.88
2023-05-03T12:49:39.015Z,95876.47
2023-05-03T12:54:40.320Z,95868.09
2023-05-03T12:57:14.628Z,95864.78
2023-05-03T12:59:43.328Z,95859.44
2023-05-03T13:07:16.818Z,95855.81
2023-05-03T13:12:33.446Z,95846.69
2023-05-03T13:15:03.613Z,95840.81
2023-05-03T13:17:31.338Z,95846.59
2023-05-03T13:19:58.164Z,95851.78
2023-05-03T13:22:28.814Z,95851.06
2023-05-03T13:24:56.042Z,95836.63
2023-05-03T13:27:22.809Z,95834.50
2023-05-03T13:29:49.777Z,95826.56
2023-05-03T13:32:16.872Z,95832.34
2023-05-03T13:34:44.296Z,95829.44
2023-05-03T13:37:11.590Z,95824.59
2023-05-03T13:39:38.230Z,95829.66
2023-05-03T13:42:04.897Z,95826.13
2023-05-03T13:44:31.402Z,95820.22
2023-05-03T13:46:58.291Z,95817.38
2023-05-03T13:49:25.529Z,95819.81
2023-05-03T13:51:55.362Z,95815.59
2023-05-03T13:54:21.907Z,95813.56
2023-05-03T13:56:48.537Z,95815.88
2023-05-03T13:59:16.094Z,95804.91
2023-05-03T14:01:43.380Z,95814.25
2023-05-03T14:04:10.571Z,95798.78
2023-05-03T14:06:40.329Z,95795.16
2023-05-03T14:09:07.704Z,95804.44
2023-05-03T14:11:34.299Z,95798.22
2023-05-03T14:14:00.988Z,95801.38
2023-05-03T14:18:57.375Z,95815.00
2023-05-03T14:21:24.476Z,95807.31
2023-05-03T14:23:51.074Z,95813.53
2023-05-03T14:26:18.201Z,95808.09
2023-05-03T14:28:44.873Z,95810.94
2023-05-03T14:31:13.096Z,95805.88
2023-05-03T14:33:39.718Z,95795.63
2023-05-03T14:36:08.467Z,95799.97
2023-05-03T14:38:35.788Z,95789.44
2023-05-03T14:41:02.433Z,95792.44
2023-05-03T14:43:29.082Z,95794.44
2023-05-03T14:45:55.685Z,95782.06
2023-05-03T14:48:22.291Z,95781.13
2023-05-03T14:50:52.793Z,95783.91
2023-05-03T14:53:19.462Z,95785.59
2023-05-03T14:55:46.698Z,95787.53
2023-05-03T14:58:13.803Z,95784.84
2023-05-03T15:00:41.614Z,95789.00
2023-05-03T15:03:11.891Z,95778.25
2023-05-03T15:05:43.189Z,95781.97
2023-05-03T15:08:10.495Z,95769.63
2023-05-03T15:10:44.964Z,95774.16
2023-05-03T15:13:13.185Z,95770.22
2023-05-03T15:15:43.457Z,95776.22
2023-05-03T15:18:10.890Z,95779.97
2023-05-03T15:20:37.994Z,95778.44
2023-05-03T15:23:05.051Z,95786.38
2023-05-03T15:25:32.006Z,95783.69
2023-05-03T15:27:59.966Z,95779.75
2023-05-03T15:30:28.943Z,95789.56
2023-05-03T15:32:55.592Z,95790.25
2023-05-03T15:35:22.298Z,95788.53
2023-05-03T15:37:48.866Z,95788.50
2023-05-03T15:40:15.590Z,95793.84
2023-05-03T15:42:42.171Z,95787.25
2023-05-03T15:45:10.476Z,95783.63
2023-05-03T15:47:37.191Z,95773.56
2023-05-03T15:50:07.454Z,95783.47
2023-05-03T15:52:34.971Z,95782.72
2023-05-03T15:55:01.758Z,95787.03
2023-05-03T15:57:30.196Z,95783.41
2023-05-03T15:59:57.216Z,95787.47
2023-05-03T16:02:23.897Z,95784.53
2023-05-03T16:04:50.732Z,95780.59
2023-05-03T16:07:17.956Z,95783.53
2023-05-03T16:09:44.927Z,95775.34
2023-05-03T16:12:11.732Z,95780.94
2023-05-03T16:14:38.334Z,95775.31
2023-05-03T16:17:04.854Z,95777.53
2023-05-03T16:19:31.994Z,95779.63
2023-05-03T16:21:58.858Z,95768.69
2023-05-03T16:24:25.544Z,95773.34
2023-05-03T16:26:52.594Z,95768.31
2023-05-03T16:29:19.593Z,95775.47
2023-05-03T16:31:46.924Z,95776.56
2023-05-03T16:34:14.006Z,95766.50
2023-05-03T16:36:42.657Z,95761.56
2023-05-03T16:39:10.873Z,95765.72
2023-05-03T16:41:37.641Z,95765.91
2023-05-03T16:44:08.366Z,95769.91
2023-05-03T16:46:40.163Z,95764.34
2023-05-03T16:49:07.146Z,95764.53
2023-05-03T16:51:34.455Z,95770.94
2023-05-03T16:54:04.298Z,95773.84
2023-05-03T16:56:31.233Z,95760.75
2023-05-03T16:58:59.206Z,95769.84
2023-05-03T17:01:26.446Z,95778.09
2023-05-03T17:03:53.279Z,95776.06
2023-05-03T17:06:20.003Z,95772.78
2023-05-03T17:08:46.550Z,95769.16
2023-05-03T17:11:14.154Z,95771.34
2023-05-03T17:13:40.730Z,95763.44
2023-05-03T17:16:09.151Z,95770.81
2023-05-03T17:18:37.084Z,95769.84
2023-05-03T17:21:07.795Z,95769.75
2023-05-03T17:23:36.124Z,95773.84
2023-05-03T17:26:11.298Z,95769.63
2023-05-03T17:28:37.897Z,95773.13
2023-05-03T17:31:06.304Z,95768.47
2023-05-03T17:33:34.046Z,95772.28
2023-05-03T17:36:02.381Z,95772.06
2023-05-03T17:38:29.055Z,95769.94
2023-05-03T17:40:55.623Z,95766.22
2023-05-03T17:43:22.279Z,95768.00
2023-05-03T17:45:48.931Z,95777.78
2023-05-03T17:48:15.604Z,95773.19
2023-05-03T17:50:43.196Z,95767.91
2023-05-03T17:53:09.894Z,95772.75
2023-05-03T17:55:38.211Z,95766.81
2023-05-03T17:58:06.417Z,95770.13
2023-05-03T18:00:33.636Z,95771.66
2023-05-03T18:03:00.552Z,95776.81
2023-05-03T18:05:27.287Z,95777.22
2023-05-03T18:07:54.010Z,95780.38
2023-05-03T18:10:20.745Z,95783.28
2023-05-03T18:12:47.285Z,95783.44
2023-05-03T18:15:15.313Z,95791.16
2023-05-03T18:17:42.690Z,95781.44
2023-05-03T18:20:10.091Z,95783.22
2023-05-03T18:22:37.399Z,95784.91
2023-05-03T18:25:07.234Z,95779.84
2023-05-03T18:27:36.598Z,95780.25
2023-05-03T18:30:07.124Z,95774.59
2023-05-03T18:32:34.093Z,95780.53
2023-05-03T18:35:00.858Z,95784.25
2023-05-03T18:37:27.723Z,95786.91
2023-05-03T18:39:54.400Z,95785.50
2023-05-03T18:42:22.308Z,95790.28
2023-05-03T18:44:49.083Z,95795.06
2023-05-03T18:47:20.218Z,95797.56
2023-05-03T18:49:52.722Z,95796.34
2023-05-03T18:52:23.116Z,95796.50
2023-05-03T18:54:50.335Z,95800.31
2023-05-03T18:57:16.877Z,95799.56
2023-05-03T18:59:56.568Z,95805.16
2023-05-03T19:02:30.254Z,95812.97
2023-05-03T19:04:56.921Z,95811.41
2023-05-03T19:07:23.671Z,95813.88
2023-05-03T19:09:57.410Z,95812.84
2023-05-03T19:12:24.060Z,95809.38
2023-05-03T19:14:50.594Z,95824.72
2023-05-03T19:17:17.169Z,95816.75
2023-05-03T19:19:43.779Z,95821.50
2023-05-03T19:22:10.352Z,95819.03
2023-05-03T19:24:36.916Z,95813.88
2023-05-03T19:27:04.576Z,95828.84
2023-05-03T19:29:31.391Z,95823.75
2023-05-03T19:31:57.958Z,95824.56
2023-05-03T19:34:24.520Z,95822.53
2023-05-03T19:36:51.096Z,95822.09
2023-05-03T19:39:17.735Z,95819.03
2023-05-03T19:41:44.311Z,95818.00
2023-05-03T19:44:11.022Z,95815.97
2023-05-03T19:46:37.585Z,95811.03
2023-05-03T19:49:04.258Z,95821.50
2023-05-03T19:51:31.461Z,95817.59
2023-05-03T19:54:00.720Z,95818.81
2023-05-03T19:56:27.538Z,95818.22
2023-05-03T19:58:55.308Z,95818.19
2023-05-03T20:01:21.869Z,95821.88
2023-05-03T20:03:48.578Z,95817.97
2023-05-03T20:06:15.332Z,95819.41
2023-05-03T20:08:41.943Z,95814.50
2023-05-03T20:11:08.576Z,95825.34
2023-05-03T20:13:35.157Z,95814.03
2023-05-03T20:16:04.887Z,95821.78
2023-05-03T20:18:31.579Z,95825.06
2023-05-03T20:20:58.086Z,95816.66
2023-05-03T20:23:24.832Z,95816.66
2023-05-03T20:25:51.366Z,95815.00
2023-05-03T20:28:17.984Z,95813.78
2023-05-03T20:30:44.644Z,95818.69
2023-05-03T20:33:11.446Z,95819.91
2023-05-03T20:38:07.423Z,95813.94
2023-05-03T20:40:34.429Z,95820.94
2023-05-03T20:43:04.332Z,95814.75
2023-05-03T20:45:31.059Z,95819.06
2023-05-03T20:47:57.658Z,95815.78
2023-05-03T20:50:24.297Z,95816.19
2023-05-03T20:52:50.897Z,95818.84
2023-05-03T20:55:17.559Z,95815.53
2023-05-03T20:57:44.129Z,95822.50
2023-05-03T21:00:15.722Z,95820.00
2023-05-03T21:02:43.188Z,95825.53
2023-05-03T21:05:11.099Z,95820.84
2023-05-03T21:07:38.349Z,95817.72
2023-05-03T21:10:06.836Z,95825.50
2023-05-03T21:12:33.584Z,95816.91
2023-05-03T21:15:00.165Z,95810.81
2023-05-03T21:17:26.797Z,95820.16
2023-05-03T21:19:53.321Z,95809.44
2023-05-03T21:22:20.084Z,95816.75
2023-05-03T21:24:46.604Z,95803.38
2023-05-03T21:27:13.281Z,95801.50
2023-05-03T21:29:39.800Z,95805.28
2023-05-03T21:32:06.715Z,95805.25
2023-05-03T21:34:33.278Z,95803.75
2023-05-03T21:37:01.059Z,95801.31
2023-05-03T21:39:27.676Z,95801.63
2023-05-03T21:41:54.653Z,95794.63
2023-05-03T21:44:21.218Z,95794.97
2023-05-03T21:46:47.767Z,95795.59
2023-05-03T21:49:15.208Z,95791.09
2023-05-03T21:51:41.881Z,95792.28
2023-05-03T21:54:08.399Z,95791.63
2023-05-03T21:56:34.943Z,95789.97
2023-05-03T21:59:01.563Z,95789.16
2023-05-03T22:01:28.681Z,95785.22
2023-05-03T22:03:55.521Z,95793.41
2023-05-03T22:06:22.323Z,95784.78
2023-05-03T22:08:49.165Z,95786.00
2023-05-03T22:11:15.699Z,95780.50
2023-05-03T22:13:58.755Z,95774.22
2023-05-03T22:16:28.875Z,95772.22
2023-05-03T22:18:55.708Z,95776.13
2023-05-03T22:21:22.294Z,95775.16
2023-05-03T22:23:48.863Z,95782.41
2023-05-03T22:26:15.387Z,95772.84
2023-05-03T22:28:41.918Z,95775.06
2023-05-03T22:31:08.492Z,95774.88
2023-05-03T22:33:36.330Z,95777.94
2023-05-03T22:36:02.960Z,95774.41
2023-05-03T22:38:29.609Z,95772.50
2023-05-03T22:40:56.134Z,95759.00
2023-05-03T22:43:22.708Z,95762.34
2023-05-03T22:45:49.275Z,95761.03
2023-05-03T22:48:15.940Z,95762.84
2023-05-03T22:50:42.480Z,95763.16
2023-05-03T22:53:09.100Z,95761.84
2023-05-03T22:55:35.962Z,95761.84
2023-05-03T22:58:02.500Z,95762.16
2023-05-03T23:00:29.229Z,95760.38
2023-05-03T23:02:56.023Z,95753.06
2023-05-03T23:05:22.634Z,95754.25
2023-05-03T23:07:49.266Z,95752.66
2023-05-03T23:10:15.784Z,95757.25
2023-05-03T23:12:42.343Z,95750.94
2023-05-03T23:15:09.143Z,95750.63
2023-05-03T23:17:35.735Z,95754.06
2023-05-03T23:20:02.641Z,95754.16
2023-05-03T23:22:29.443Z,95750.00
2023-05-03T23:24:55.974Z,95754.22
2023-05-03T23:27:22.879Z,95757.13
2023-05-03T23:29:50.713Z,95752.22
2023-05-03T23:32:17.748Z,95749.56
2023-05-03T23:34:44.672Z,95746.59
2023-05-03T23:37:11.189Z,95735.41
2023-05-03T23:39:42.787Z,95742.19
2023-05-03T23:42:09.682Z,95740.81
2023-05-03T23:44:53.148Z,95747.78
2023-05-03T23:47:21.485Z,95745.97
2023-05-03T23:49:48.025Z,95737.09
2023-05-03T23:52:16.801Z,95737.94
2023-05-03T23:54:43.380Z,95737.84
2023-05-03T23:57:10.002Z,95741.22
2023-05-03T23:59:36.587Z,95735.28
